UAL639 KBOS-KLAX
Flight info
| Callsign | UAL639 |
|---|---|
| Flight time | N/A |
| Altitude | 38000 |
| Route | HYLND7 HYLND HANAA Q816 HOCKE GRB ODI FSD J114 ONL/N0483F400 J114 DVV J60 HVE PROMT Q88 HAKMN ANJLL4 |
| Aircraft | B77L/H-SDE1E2E3FGHIJ2J3J4J5M1RWXY/LB1D1 |
Departure
| Time | 2026-05-06 10:02 |
|---|---|
| Airport | Boston Logan International Airport (KBOS) |
Arrival
| Time | N/A |
|---|---|
| Airport | Los Angeles International Airport (KLAX) |
| Time | Latitude | Longitude | Altitude | Speed | Heading |
|---|---|---|---|---|---|
| 2026-05-06 09:05 | 42.37088 | -71.01853 | 32 ft | 0 kts | 211° |
| 2026-05-06 09:33 | 42.37088 | -71.01854 | 32 ft | 0 kts | 212° |
| 2026-05-06 09:47 | 42.37088 | -71.01853 | 32 ft | 1 kts | 212° |
| 2026-05-06 09:47 | 42.37103 | -71.01841 | 32 ft | 3 kts | 212° |
| 2026-05-06 09:48 | 42.37120 | -71.01817 | 31 ft | 4 kts | 244° |
| 2026-05-06 09:48 | 42.37130 | -71.01789 | 31 ft | 4 kts | 217° |
| 2026-05-06 09:48 | 42.37143 | -71.01790 | 30 ft | 4 kts | 132° |
| 2026-05-06 09:48 | 42.37158 | -71.01819 | 31 ft | 4 kts | 126° |
| 2026-05-06 09:49 | 42.37175 | -71.01848 | 30 ft | 4 kts | 127° |
| 2026-05-06 09:49 | 42.37186 | -71.01869 | 32 ft | 0 kts | 123° |
| 2026-05-06 09:54 | 42.37173 | -71.01844 | 33 ft | 7 kts | 124° |
| 2026-05-06 09:55 | 42.37134 | -71.01767 | 33 ft | 13 kts | 125° |
| 2026-05-06 09:55 | 42.37075 | -71.01662 | 34 ft | 11 kts | 133° |
| 2026-05-06 09:55 | 42.37045 | -71.01613 | 34 ft | 8 kts | 130° |
| 2026-05-06 09:55 | 42.36982 | -71.01525 | 31 ft | 11 kts | 134° |
| 2026-05-06 09:56 | 42.36942 | -71.01469 | 30 ft | 13 kts | 134° |
| 2026-05-06 09:56 | 42.36873 | -71.01376 | 30 ft | 10 kts | 135° |
| 2026-05-06 09:56 | 42.36852 | -71.01303 | 29 ft | 8 kts | 86° |
| 2026-05-06 09:56 | 42.36873 | -71.01251 | 29 ft | 3 kts | 45° |
| 2026-05-06 09:57 | 42.36889 | -71.01229 | 29 ft | 7 kts | 46° |
| 2026-05-06 09:57 | 42.36930 | -71.01175 | 29 ft | 10 kts | 43° |
| 2026-05-06 09:57 | 42.36988 | -71.01114 | 29 ft | 10 kts | 32° |
| 2026-05-06 09:57 | 42.37067 | -71.01056 | 27 ft | 16 kts | 27° |
| 2026-05-06 09:58 | 42.37130 | -71.01013 | 26 ft | 9 kts | 27° |
| 2026-05-06 09:58 | 42.37204 | -71.00962 | 27 ft | 15 kts | 27° |
| 2026-05-06 09:58 | 42.37270 | -71.00917 | 26 ft | 0 kts | 26° |
| 2026-05-06 09:58 | 42.37275 | -71.00915 | 26 ft | 3 kts | 20° |
| 2026-05-06 09:59 | 42.37314 | -71.00895 | 30 ft | 9 kts | 20° |
| 2026-05-06 09:59 | 42.37396 | -71.00856 | 26 ft | 15 kts | 19° |
| 2026-05-06 09:59 | 42.37505 | -71.00806 | 28 ft | 18 kts | 19° |
| 2026-05-06 09:59 | 42.37606 | -71.00760 | 29 ft | 17 kts | 15° |
| 2026-05-06 10:00 | 42.37726 | -71.00713 | 33 ft | 12 kts | 22° |
| 2026-05-06 10:00 | 42.37772 | -71.00639 | 34 ft | 9 kts | 82° |
| 2026-05-06 10:00 | 42.37763 | -71.00563 | 32 ft | 8 kts | 101° |
| 2026-05-06 10:00 | 42.37719 | -71.00512 | 31 ft | 10 kts | 186° |
| 2026-05-06 10:01 | 42.37700 | -71.00519 | 31 ft | 1 kts | 197° |
| 2026-05-06 10:01 | 42.37660 | -71.00535 | 32 ft | 19 kts | 197° |
| 2026-05-06 10:01 | 42.37355 | -71.00673 | 27 ft | 83 kts | 200° |
| 2026-05-06 10:01 | 42.36588 | -71.01055 | 35 ft | 148 kts | 200° |
| 2026-05-06 10:02 | 42.35541 | -71.01631 | 316 ft | 174 kts | 206° |
| 2026-05-06 10:02 | 42.34405 | -71.02080 | 984 ft | 172 kts | 174° |
| 2026-05-06 10:02 | 42.33434 | -71.01112 | 1792 ft | 198 kts | 132° |
| 2026-05-06 10:02 | 42.32724 | -70.99409 | 2165 ft | 214 kts | 141° |
| 2026-05-06 10:03 | 42.31752 | -70.97848 | 2811 ft | 222 kts | 137° |
| 2026-05-06 10:03 | 42.31155 | -70.95783 | 3291 ft | 260 kts | 99° |
| 2026-05-06 10:03 | 42.31422 | -70.93202 | 3562 ft | 293 kts | 79° |
| 2026-05-06 10:03 | 42.31901 | -70.90462 | 4026 ft | 304 kts | 81° |
| 2026-05-06 10:04 | 42.32356 | -70.87656 | 3966 ft | 303 kts | 82° |
| 2026-05-06 10:04 | 42.32786 | -70.84888 | 4092 ft | 301 kts | 82° |
| 2026-05-06 10:04 | 42.33205 | -70.82116 | 4736 ft | 298 kts | 82° |
| 2026-05-06 10:04 | 42.33619 | -70.79353 | 5010 ft | 301 kts | 82° |
| 2026-05-06 10:05 | 42.34347 | -70.76690 | 5037 ft | 309 kts | 55° |
| 2026-05-06 10:05 | 42.35937 | -70.74768 | 5839 ft | 310 kts | 28° |
| 2026-05-06 10:05 | 42.37928 | -70.73717 | 6708 ft | 307 kts | 13° |
| 2026-05-06 10:05 | 42.39977 | -70.72901 | 7441 ft | 315 kts | 13° |
| 2026-05-06 10:06 | 42.42101 | -70.72038 | 8256 ft | 321 kts | 13° |
| 2026-05-06 10:06 | 42.44267 | -70.71421 | 8995 ft | 316 kts | 353° |
| 2026-05-06 10:06 | 42.46369 | -70.71998 | 9770 ft | 303 kts | 328° |
| 2026-05-06 10:06 | 42.48265 | -70.73235 | 10417 ft | 309 kts | 325° |
| 2026-05-06 10:07 | 42.50279 | -70.74584 | 10670 ft | 337 kts | 326° |
| 2026-05-06 10:07 | 42.52448 | -70.76063 | 10866 ft | 357 kts | 322° |
| 2026-05-06 10:07 | 42.54281 | -70.78279 | 11407 ft | 349 kts | 297° |
| 2026-05-06 10:07 | 42.55595 | -70.81051 | 12134 ft | 355 kts | 295° |
| 2026-05-06 10:08 | 42.56948 | -70.83892 | 13170 ft | 361 kts | 296° |
| 2026-05-06 10:08 | 42.58315 | -70.86716 | 14175 ft | 364 kts | 296° |
| 2026-05-06 10:08 | 42.59735 | -70.89636 | 15225 ft | 366 kts | 296° |
| 2026-05-06 10:08 | 42.61145 | -70.92529 | 16277 ft | 368 kts | 297° |
| 2026-05-06 10:09 | 42.62542 | -70.95397 | 17266 ft | 370 kts | 297° |
| 2026-05-06 10:09 | 42.63971 | -70.98333 | 18226 ft | 374 kts | 297° |
| 2026-05-06 10:09 | 42.65414 | -71.01301 | 18974 ft | 379 kts | 298° |
| 2026-05-06 10:09 | 42.66880 | -71.04318 | 19700 ft | 385 kts | 298° |
| 2026-05-06 10:10 | 42.68367 | -71.07383 | 20443 ft | 391 kts | 298° |
| 2026-05-06 10:10 | 42.69877 | -71.10496 | 21163 ft | 396 kts | 298° |
| 2026-05-06 10:10 | 42.71403 | -71.13644 | 21888 ft | 401 kts | 298° |
| 2026-05-06 10:10 | 42.72946 | -71.16830 | 22606 ft | 407 kts | 298° |
| 2026-05-06 10:11 | 42.74515 | -71.20073 | 23320 ft | 412 kts | 298° |
| 2026-05-06 10:11 | 42.76098 | -71.23350 | 23946 ft | 417 kts | 298° |
| 2026-05-06 10:11 | 42.77671 | -71.26656 | 24632 ft | 417 kts | 296° |
| 2026-05-06 10:11 | 42.78787 | -71.30204 | 25285 ft | 406 kts | 281° |
| 2026-05-06 10:12 | 42.79431 | -71.33972 | 25777 ft | 411 kts | 280° |
| 2026-05-06 10:12 | 42.80098 | -71.37791 | 26362 ft | 415 kts | 280° |
| 2026-05-06 10:12 | 42.80788 | -71.41609 | 27077 ft | 416 kts | 281° |
| 2026-05-06 10:12 | 42.81495 | -71.45449 | 27798 ft | 417 kts | 281° |
| 2026-05-06 10:13 | 42.82211 | -71.49293 | 28456 ft | 419 kts | 281° |
| 2026-05-06 10:13 | 42.82933 | -71.53159 | 29053 ft | 423 kts | 281° |
| 2026-05-06 10:13 | 42.83654 | -71.57014 | 29634 ft | 426 kts | 281° |
| 2026-05-06 10:13 | 42.84387 | -71.60940 | 30158 ft | 429 kts | 281° |
| 2026-05-06 10:14 | 42.85124 | -71.64890 | 30609 ft | 431 kts | 281° |
| 2026-05-06 10:14 | 42.85862 | -71.68859 | 31061 ft | 433 kts | 281° |
| 2026-05-06 10:14 | 42.86604 | -71.72851 | 31498 ft | 435 kts | 281° |
| 2026-05-06 10:14 | 42.87342 | -71.76832 | 32081 ft | 432 kts | 281° |
| 2026-05-06 10:15 | 42.88076 | -71.80795 | 32739 ft | 428 kts | 281° |
| 2026-05-06 10:15 | 42.88801 | -71.84719 | 33375 ft | 424 kts | 281° |
| 2026-05-06 10:15 | 42.89518 | -71.88609 | 33914 ft | 422 kts | 281° |
| 2026-05-06 10:15 | 42.90231 | -71.92492 | 34358 ft | 422 kts | 281° |
| 2026-05-06 10:16 | 42.90941 | -71.96374 | 34777 ft | 421 kts | 281° |
| 2026-05-06 10:16 | 42.91647 | -72.00243 | 35245 ft | 418 kts | 282° |
| 2026-05-06 10:16 | 42.92346 | -72.04075 | 35725 ft | 416 kts | 282° |
| 2026-05-06 10:16 | 42.93042 | -72.07896 | 36169 ft | 414 kts | 282° |
| 2026-05-06 10:17 | 42.93734 | -72.11705 | 36591 ft | 412 kts | 282° |
| 2026-05-06 10:17 | 42.94422 | -72.15497 | 37004 ft | 411 kts | 282° |
| 2026-05-06 10:17 | 42.95104 | -72.19267 | 37420 ft | 409 kts | 282° |
| 2026-05-06 10:17 | 42.95785 | -72.23041 | 37804 ft | 408 kts | 282° |
| 2026-05-06 10:18 | 42.97144 | -72.30590 | 37876 ft | 413 kts | 282° |
| 2026-05-06 10:18 | 42.98500 | -72.38149 | 37879 ft | 406 kts | 282° |
| 2026-05-06 10:19 | 42.99835 | -72.45624 | 37881 ft | 404 kts | 282° |
| 2026-05-06 10:19 | 43.01161 | -72.53084 | 37875 ft | 403 kts | 282° |
| 2026-05-06 10:20 | 43.02480 | -72.60530 | 37895 ft | 403 kts | 282° |
| 2026-05-06 10:20 | 43.03798 | -72.68004 | 37856 ft | 404 kts | 283° |
| 2026-05-06 10:21 | 43.05114 | -72.75489 | 37861 ft | 405 kts | 282° |
| 2026-05-06 10:21 | 43.06417 | -72.82938 | 37851 ft | 405 kts | 282° |
| 2026-05-06 10:22 | 43.07728 | -72.90469 | 37853 ft | 406 kts | 282° |
| 2026-05-06 10:22 | 43.09033 | -72.97992 | 37858 ft | 407 kts | 282° |
| 2026-05-06 10:23 | 43.10336 | -73.05531 | 37853 ft | 407 kts | 282° |
| 2026-05-06 10:23 | 43.11635 | -73.13081 | 37833 ft | 407 kts | 282° |
| 2026-05-06 10:24 | 43.12919 | -73.20575 | 37839 ft | 407 kts | 282° |
| 2026-05-06 10:24 | 43.14209 | -73.28139 | 37838 ft | 406 kts | 282° |
| 2026-05-06 10:25 | 43.15488 | -73.35668 | 37838 ft | 405 kts | 281° |
| 2026-05-06 10:25 | 43.16756 | -73.43166 | 37843 ft | 403 kts | 281° |
| 2026-05-06 10:26 | 43.18007 | -73.50592 | 37840 ft | 401 kts | 281° |
| 2026-05-06 10:26 | 43.19255 | -73.58030 | 37835 ft | 399 kts | 281° |
| 2026-05-06 10:27 | 43.20146 | -73.65507 | 37850 ft | 397 kts | 275° |
| 2026-05-06 10:27 | 43.20685 | -73.73038 | 37844 ft | 396 kts | 275° |
| 2026-05-06 10:28 | 43.21233 | -73.80536 | 37829 ft | 394 kts | 275° |
| 2026-05-06 10:28 | 43.21781 | -73.88007 | 37844 ft | 394 kts | 275° |
| 2026-05-06 10:29 | 43.22320 | -73.95417 | 37830 ft | 393 kts | 275° |
| 2026-05-06 10:29 | 43.22859 | -74.02888 | 37857 ft | 393 kts | 275° |
| 2026-05-06 10:30 | 43.23392 | -74.10351 | 37837 ft | 392 kts | 275° |
| 2026-05-06 10:30 | 43.23918 | -74.17779 | 37845 ft | 391 kts | 275° |
| 2026-05-06 10:31 | 43.24434 | -74.25143 | 37846 ft | 389 kts | 275° |
| 2026-05-06 10:31 | 43.24946 | -74.32531 | 37843 ft | 389 kts | 274° |
| 2026-05-06 10:32 | 43.25209 | -74.39928 | 37848 ft | 388 kts | 272° |
| 2026-05-06 10:32 | 43.25395 | -74.47347 | 37836 ft | 388 kts | 271° |
| 2026-05-06 10:33 | 43.25578 | -74.54700 | 37829 ft | 388 kts | 271° |
| 2026-05-06 10:33 | 43.25763 | -74.62088 | 37835 ft | 387 kts | 271° |
| 2026-05-06 10:34 | 43.25948 | -74.69483 | 37832 ft | 387 kts | 271° |
| 2026-05-06 10:34 | 43.26127 | -74.76845 | 37840 ft | 387 kts | 271° |
| 2026-05-06 10:35 | 43.26300 | -74.84207 | 37833 ft | 388 kts | 271° |
| 2026-05-06 10:35 | 43.26471 | -74.91624 | 37829 ft | 388 kts | 271° |
| 2026-05-06 10:36 | 43.26636 | -74.99006 | 37827 ft | 389 kts | 271° |
| 2026-05-06 10:36 | 43.26798 | -75.06412 | 37870 ft | 389 kts | 271° |
| 2026-05-06 10:37 | 43.26955 | -75.13834 | 37852 ft | 389 kts | 270° |
| 2026-05-06 10:37 | 43.27106 | -75.21259 | 37848 ft | 389 kts | 270° |
| 2026-05-06 10:38 | 43.27252 | -75.28643 | 37860 ft | 389 kts | 270° |
| 2026-05-06 10:38 | 43.27394 | -75.36067 | 37854 ft | 389 kts | 271° |
| 2026-05-06 10:39 | 43.27532 | -75.43499 | 37887 ft | 389 kts | 270° |
| 2026-05-06 10:39 | 43.27666 | -75.50936 | 37868 ft | 390 kts | 270° |
| 2026-05-06 10:40 | 43.27793 | -75.58375 | 37855 ft | 390 kts | 270° |
| 2026-05-06 10:40 | 43.27895 | -75.64565 | 37852 ft | 389 kts | 270° |
| 2026-05-06 10:41 | 43.28015 | -75.71999 | 37845 ft | 389 kts | 270° |
| 2026-05-06 10:41 | 43.28147 | -75.80628 | 37859 ft | 389 kts | 270° |
| 2026-05-06 10:42 | 43.28239 | -75.86847 | 37846 ft | 389 kts | 270° |
| 2026-05-06 10:42 | 43.28342 | -75.94225 | 37856 ft | 389 kts | 270° |
| 2026-05-06 10:43 | 43.28442 | -76.01673 | 37855 ft | 389 kts | 269° |
| 2026-05-06 10:44 | 43.28583 | -76.12831 | 37856 ft | 390 kts | 269° |
| 2026-05-06 10:44 | 43.28671 | -76.20275 | 37872 ft | 390 kts | 269° |
| 2026-05-06 10:45 | 43.28754 | -76.27671 | 37872 ft | 390 kts | 269° |
| 2026-05-06 10:45 | 43.28832 | -76.35130 | 37869 ft | 390 kts | 269° |
| 2026-05-06 10:46 | 43.28906 | -76.42585 | 37869 ft | 390 kts | 269° |
| 2026-05-06 10:46 | 43.28974 | -76.50040 | 37869 ft | 390 kts | 269° |
| 2026-05-06 10:47 | 43.29040 | -76.57512 | 37879 ft | 391 kts | 268° |
| 2026-05-06 10:47 | 43.29099 | -76.64927 | 37877 ft | 391 kts | 268° |
| 2026-05-06 10:48 | 43.29195 | -76.72391 | 37878 ft | 391 kts | 269° |
| 2026-05-06 10:48 | 43.29315 | -76.79847 | 37891 ft | 390 kts | 269° |
| 2026-05-06 10:49 | 43.29427 | -76.87293 | 37910 ft | 390 kts | 269° |
| 2026-05-06 10:49 | 43.29531 | -76.94743 | 37896 ft | 391 kts | 268° |
| 2026-05-06 10:50 | 43.29629 | -77.02208 | 37894 ft | 390 kts | 268° |
| 2026-05-06 10:50 | 43.29721 | -77.09661 | 37885 ft | 390 kts | 268° |
| 2026-05-06 10:51 | 43.29808 | -77.17099 | 37879 ft | 389 kts | 269° |
| 2026-05-06 10:51 | 43.29890 | -77.24531 | 37910 ft | 389 kts | 268° |
| 2026-05-06 10:52 | 43.29968 | -77.31956 | 37893 ft | 389 kts | 268° |
| 2026-05-06 10:52 | 43.30040 | -77.39397 | 37886 ft | 389 kts | 268° |
| 2026-05-06 10:53 | 43.30108 | -77.46783 | 37881 ft | 389 kts | 268° |
| 2026-05-06 10:53 | 43.30171 | -77.54211 | 37884 ft | 389 kts | 268° |
| 2026-05-06 10:54 | 43.30230 | -77.61655 | 37901 ft | 390 kts | 268° |
| 2026-05-06 10:54 | 43.30283 | -77.69112 | 37879 ft | 391 kts | 268° |
| 2026-05-06 10:55 | 43.30331 | -77.76580 | 37884 ft | 391 kts | 268° |